sensor_id;sensor_type;location;lat;lon;timestamp;P1;durP1;ratioP1;P2;durP2;ratioP2
9459;SDS011;4768;42.664;23.240;2022-07-29T00:01:15;14.97;;;7.47;;
9459;SDS011;4768;42.664;23.240;2022-07-29T00:03:42;8.40;;;7.40;;
9459;SDS011;4768;42.664;23.240;2022-07-29T00:06:10;9.53;;;7.73;;
9459;SDS011;4768;42.664;23.240;2022-07-29T00:08:37;11.70;;;7.23;;
9459;SDS011;4768;42.664;23.240;2022-07-29T00:11:04;9.23;;;7.20;;
9459;SDS011;4768;42.664;23.240;2022-07-29T00:13:31;7.27;;;6.57;;
9459;SDS011;4768;42.664;23.240;2022-07-29T00:15:57;12.67;;;8.07;;
9459;SDS011;4768;42.664;23.240;2022-07-29T00:18:24;9.77;;;7.03;;
9459;SDS011;4768;42.664;23.240;2022-07-29T00:20:51;10.73;;;8.10;;
9459;SDS011;4768;42.664;23.240;2022-07-29T00:23:19;7.70;;;6.90;;
9459;SDS011;4768;42.664;23.240;2022-07-29T00:25:46;8.63;;;7.13;;
9459;SDS011;4768;42.664;23.240;2022-07-29T00:28:13;9.63;;;7.20;;
9459;SDS011;4768;42.664;23.240;2022-07-29T00:30:39;10.20;;;7.27;;
9459;SDS011;4768;42.664;23.240;2022-07-29T00:33:08;11.93;;;8.07;;
9459;SDS011;4768;42.664;23.240;2022-07-29T00:35:34;11.53;;;7.83;;
9459;SDS011;4768;42.664;23.240;2022-07-29T00:38:09;10.50;;;8.27;;
9459;SDS011;4768;42.664;23.240;2022-07-29T00:40:38;11.37;;;7.77;;
9459;SDS011;4768;42.664;23.240;2022-07-29T00:43:05;11.67;;;7.47;;
9459;SDS011;4768;42.664;23.240;2022-07-29T00:45:32;12.27;;;8.17;;
9459;SDS011;4768;42.664;23.240;2022-07-29T00:47:59;10.00;;;7.80;;
9459;SDS011;4768;42.664;23.240;2022-07-29T00:50:26;9.47;;;7.63;;
9459;SDS011;4768;42.664;23.240;2022-07-29T00:52:53;16.50;;;8.07;;
9459;SDS011;4768;42.664;23.240;2022-07-29T00:55:20;13.43;;;8.03;;
9459;SDS011;4768;42.664;23.240;2022-07-29T00:57:48;11.30;;;7.87;;
9459;SDS011;4768;42.664;23.240;2022-07-29T01:00:17;13.23;;;8.03;;
9459;SDS011;4768;42.664;23.240;2022-07-29T01:02:45;12.57;;;7.80;;
9459;SDS011;4768;42.664;23.240;2022-07-29T01:05:14;12.87;;;8.63;;
9459;SDS011;4768;42.664;23.240;2022-07-29T01:07:44;10.87;;;8.70;;
9459;SDS011;4768;42.664;23.240;2022-07-29T01:10:12;12.80;;;8.83;;
9459;SDS011;4768;42.664;23.240;2022-07-29T01:12:40;13.20;;;8.60;;
9459;SDS011;4768;42.664;23.240;2022-07-29T01:15:11;13.17;;;8.37;;
9459;SDS011;4768;42.664;23.240;2022-07-29T01:17:41;13.63;;;8.67;;
9459;SDS011;4768;42.664;23.240;2022-07-29T01:20:12;14.53;;;8.33;;
9459;SDS011;4768;42.664;23.240;2022-07-29T01:23:01;9.70;;;8.20;;
9459;SDS011;4768;42.664;23.240;2022-07-29T01:25:54;13.00;;;8.50;;
9459;SDS011;4768;42.664;23.240;2022-07-29T01:31:20;13.30;;;8.50;;
9459;SDS011;4768;42.664;23.240;2022-07-29T01:33:53;11.23;;;8.03;;
9459;SDS011;4768;42.664;23.240;2022-07-29T01:36:32;11.40;;;8.50;;
9459;SDS011;4768;42.664;23.240;2022-07-29T01:39:04;10.97;;;8.73;;
9459;SDS011;4768;42.664;23.240;2022-07-29T01:41:43;13.60;;;8.83;;
9459;SDS011;4768;42.664;23.240;2022-07-29T01:44:19;11.83;;;8.80;;
9459;SDS011;4768;42.664;23.240;2022-07-29T01:46:49;12.80;;;8.77;;
9459;SDS011;4768;42.664;23.240;2022-07-29T01:49:20;10.43;;;8.37;;
9459;SDS011;4768;42.664;23.240;2022-07-29T01:51:51;10.03;;;8.40;;
9459;SDS011;4768;42.664;23.240;2022-07-29T01:54:21;10.60;;;8.93;;
9459;SDS011;4768;42.664;23.240;2022-07-29T01:56:53;12.67;;;8.27;;
9459;SDS011;4768;42.664;23.240;2022-07-29T01:59:24;10.20;;;8.37;;
9459;SDS011;4768;42.664;23.240;2022-07-29T02:01:53;12.90;;;8.53;;
9459;SDS011;4768;42.664;23.240;2022-07-29T02:04:21;12.17;;;8.93;;
9459;SDS011;4768;42.664;23.240;2022-07-29T02:06:50;10.80;;;9.00;;
9459;SDS011;4768;42.664;23.240;2022-07-29T02:09:19;13.73;;;8.73;;
9459;SDS011;4768;42.664;23.240;2022-07-29T02:11:47;11.17;;;8.47;;
9459;SDS011;4768;42.664;23.240;2022-07-29T02:14:17;10.10;;;8.37;;
9459;SDS011;4768;42.664;23.240;2022-07-29T02:16:48;13.60;;;8.33;;
9459;SDS011;4768;42.664;23.240;2022-07-29T02:19:18;15.43;;;8.60;;
9459;SDS011;4768;42.664;23.240;2022-07-29T02:21:47;10.83;;;7.70;;
9459;SDS011;4768;42.664;23.240;2022-07-29T02:24:17;12.03;;;8.30;;
9459;SDS011;4768;42.664;23.240;2022-07-29T02:26:45;11.30;;;8.50;;
9459;SDS011;4768;42.664;23.240;2022-07-29T02:29:13;8.70;;;7.80;;
9459;SDS011;4768;42.664;23.240;2022-07-29T02:31:42;12.10;;;8.33;;
9459;SDS011;4768;42.664;23.240;2022-07-29T02:34:13;9.00;;;8.10;;
9459;SDS011;4768;42.664;23.240;2022-07-29T02:36:43;10.43;;;8.50;;
9459;SDS011;4768;42.664;23.240;2022-07-29T02:39:12;11.37;;;8.20;;
9459;SDS011;4768;42.664;23.240;2022-07-29T02:41:41;9.60;;;7.93;;
9459;SDS011;4768;42.664;23.240;2022-07-29T02:44:11;9.83;;;8.40;;
9459;SDS011;4768;42.664;23.240;2022-07-29T02:46:41;9.13;;;8.23;;
9459;SDS011;4768;42.664;23.240;2022-07-29T02:49:15;12.07;;;8.30;;
9459;SDS011;4768;42.664;23.240;2022-07-29T02:51:49;13.43;;;8.70;;
9459;SDS011;4768;42.664;23.240;2022-07-29T02:54:22;10.77;;;9.30;;
9459;SDS011;4768;42.664;23.240;2022-07-29T02:56:53;10.70;;;8.20;;
9459;SDS011;4768;42.664;23.240;2022-07-29T02:59:22;10.97;;;8.67;;
9459;SDS011;4768;42.664;23.240;2022-07-29T03:01:52;11.93;;;8.83;;
9459;SDS011;4768;42.664;23.240;2022-07-29T03:04:23;10.40;;;8.30;;
9459;SDS011;4768;42.664;23.240;2022-07-29T03:06:51;9.80;;;8.80;;
9459;SDS011;4768;42.664;23.240;2022-07-29T03:09:19;11.23;;;8.63;;
9459;SDS011;4768;42.664;23.240;2022-07-29T03:11:48;11.10;;;8.57;;
9459;SDS011;4768;42.664;23.240;2022-07-29T03:14:15;12.73;;;9.30;;
9459;SDS011;4768;42.664;23.240;2022-07-29T03:16:43;9.90;;;8.90;;
9459;SDS011;4768;42.664;23.240;2022-07-29T03:19:11;12.20;;;9.13;;
9459;SDS011;4768;42.664;23.240;2022-07-29T03:21:40;12.17;;;9.20;;
9459;SDS011;4768;42.664;23.240;2022-07-29T03:24:07;10.73;;;9.63;;
9459;SDS011;4768;42.664;23.240;2022-07-29T03:26:33;10.67;;;9.57;;
9459;SDS011;4768;42.664;23.240;2022-07-29T03:29:00;11.50;;;9.70;;
9459;SDS011;4768;42.664;23.240;2022-07-29T03:31:27;12.07;;;9.03;;
9459;SDS011;4768;42.664;23.240;2022-07-29T03:33:54;10.70;;;9.07;;
9459;SDS011;4768;42.664;23.240;2022-07-29T03:36:20;10.73;;;9.43;;
9459;SDS011;4768;42.664;23.240;2022-07-29T03:38:49;11.83;;;8.97;;
9459;SDS011;4768;42.664;23.240;2022-07-29T03:41:16;13.27;;;9.77;;
9459;SDS011;4768;42.664;23.240;2022-07-29T03:43:44;11.17;;;9.93;;
9459;SDS011;4768;42.664;23.240;2022-07-29T03:46:13;12.40;;;9.87;;
9459;SDS011;4768;42.664;23.240;2022-07-29T03:48:45;12.90;;;10.37;;
9459;SDS011;4768;42.664;23.240;2022-07-29T03:51:14;12.77;;;10.03;;
9459;SDS011;4768;42.664;23.240;2022-07-29T03:53:41;10.50;;;9.40;;
9459;SDS011;4768;42.664;23.240;2022-07-29T03:56:10;12.03;;;10.50;;
9459;SDS011;4768;42.664;23.240;2022-07-29T03:58:42;10.90;;;9.63;;
9459;SDS011;4768;42.664;23.240;2022-07-29T04:01:10;12.60;;;9.50;;
9459;SDS011;4768;42.664;23.240;2022-07-29T04:03:39;11.03;;;9.70;;
9459;SDS011;4768;42.664;23.240;2022-07-29T04:06:07;10.77;;;9.40;;
9459;SDS011;4768;42.664;23.240;2022-07-29T04:08:34;13.07;;;9.70;;
9459;SDS011;4768;42.664;23.240;2022-07-29T04:11:01;12.17;;;9.10;;
9459;SDS011;4768;42.664;23.240;2022-07-29T04:13:30;13.67;;;9.37;;
9459;SDS011;4768;42.664;23.240;2022-07-29T04:15:57;12.83;;;9.57;;
9459;SDS011;4768;42.664;23.240;2022-07-29T04:18:24;12.20;;;10.10;;
9459;SDS011;4768;42.664;23.240;2022-07-29T04:20:51;10.53;;;9.40;;
9459;SDS011;4768;42.664;23.240;2022-07-29T04:23:18;11.03;;;9.77;;
9459;SDS011;4768;42.664;23.240;2022-07-29T04:25:45;11.47;;;9.17;;
9459;SDS011;4768;42.664;23.240;2022-07-29T04:28:11;11.63;;;9.53;;
9459;SDS011;4768;42.664;23.240;2022-07-29T04:30:40;13.93;;;10.40;;
9459;SDS011;4768;42.664;23.240;2022-07-29T04:33:06;11.80;;;9.83;;
9459;SDS011;4768;42.664;23.240;2022-07-29T04:35:34;15.60;;;10.57;;
9459;SDS011;4768;42.664;23.240;2022-07-29T04:38:02;14.83;;;10.10;;
9459;SDS011;4768;42.664;23.240;2022-07-29T04:40:29;13.90;;;9.73;;
9459;SDS011;4768;42.664;23.240;2022-07-29T04:42:58;14.50;;;10.33;;
9459;SDS011;4768;42.664;23.240;2022-07-29T04:45:25;13.17;;;10.17;;
9459;SDS011;4768;42.664;23.240;2022-07-29T04:47:53;13.17;;;10.57;;
9459;SDS011;4768;42.664;23.240;2022-07-29T04:50:20;12.77;;;10.33;;
9459;SDS011;4768;42.664;23.240;2022-07-29T04:52:47;12.80;;;9.90;;
9459;SDS011;4768;42.664;23.240;2022-07-29T04:55:14;11.67;;;10.17;;
9459;SDS011;4768;42.664;23.240;2022-07-29T04:57:41;12.53;;;10.70;;
9459;SDS011;4768;42.664;23.240;2022-07-29T05:00:08;11.40;;;10.27;;
9459;SDS011;4768;42.664;23.240;2022-07-29T05:02:36;13.03;;;10.87;;
9459;SDS011;4768;42.664;23.240;2022-07-29T05:05:04;14.60;;;11.57;;
9459;SDS011;4768;42.664;23.240;2022-07-29T05:07:31;13.43;;;11.53;;
9459;SDS011;4768;42.664;23.240;2022-07-29T05:09:58;15.73;;;12.13;;
9459;SDS011;4768;42.664;23.240;2022-07-29T05:12:25;13.30;;;11.90;;
9459;SDS011;4768;42.664;23.240;2022-07-29T05:14:52;12.80;;;10.23;;
9459;SDS011;4768;42.664;23.240;2022-07-29T05:17:19;10.90;;;9.10;;
9459;SDS011;4768;42.664;23.240;2022-07-29T05:19:46;12.57;;;9.30;;
9459;SDS011;4768;42.664;23.240;2022-07-29T05:22:14;10.10;;;8.87;;
9459;SDS011;4768;42.664;23.240;2022-07-29T05:24:41;15.27;;;11.27;;
9459;SDS011;4768;42.664;23.240;2022-07-29T05:27:07;12.10;;;10.53;;
9459;SDS011;4768;42.664;23.240;2022-07-29T05:29:34;14.47;;;10.53;;
9459;SDS011;4768;42.664;23.240;2022-07-29T05:32:01;12.13;;;9.52;;
9459;SDS011;4768;42.664;23.240;2022-07-29T05:34:28;13.85;;;8.90;;
9459;SDS011;4768;42.664;23.240;2022-07-29T05:36:55;13.02;;;10.13;;
9459;SDS011;4768;42.664;23.240;2022-07-29T05:39:24;12.35;;;9.90;;
9459;SDS011;4768;42.664;23.240;2022-07-29T05:41:51;12.30;;;9.97;;
9459;SDS011;4768;42.664;23.240;2022-07-29T05:44:18;12.10;;;10.40;;
9459;SDS011;4768;42.664;23.240;2022-07-29T05:46:44;14.37;;;10.27;;
9459;SDS011;4768;42.664;23.240;2022-07-29T05:49:11;13.83;;;9.90;;
9459;SDS011;4768;42.664;23.240;2022-07-29T05:51:38;12.13;;;10.07;;
9459;SDS011;4768;42.664;23.240;2022-07-29T05:54:05;10.17;;;9.07;;
9459;SDS011;4768;42.664;23.240;2022-07-29T05:56:35;11.95;;;9.13;;
9459;SDS011;4768;42.664;23.240;2022-07-29T05:59:02;9.53;;;7.90;;
9459;SDS011;4768;42.664;23.240;2022-07-29T06:01:28;6.97;;;6.10;;
9459;SDS011;4768;42.664;23.240;2022-07-29T06:03:56;10.75;;;6.18;;
9459;SDS011;4768;42.664;23.240;2022-07-29T06:06:23;7.50;;;6.20;;
9459;SDS011;4768;42.664;23.240;2022-07-29T06:08:50;9.60;;;6.60;;
9459;SDS011;4768;42.664;23.240;2022-07-29T06:11:16;8.07;;;5.18;;
9459;SDS011;4768;42.664;23.240;2022-07-29T06:13:44;11.25;;;6.20;;
9459;SDS011;4768;42.664;23.240;2022-07-29T06:16:11;9.07;;;6.25;;
9459;SDS011;4768;42.664;23.240;2022-07-29T06:18:38;8.25;;;5.55;;
9459;SDS011;4768;42.664;23.240;2022-07-29T06:21:07;9.35;;;5.38;;
9459;SDS011;4768;42.664;23.240;2022-07-29T06:23:34;7.00;;;5.78;;
9459;SDS011;4768;42.664;23.240;2022-07-29T06:26:01;6.82;;;6.07;;
9459;SDS011;4768;42.664;23.240;2022-07-29T06:28:28;6.28;;;5.68;;
9459;SDS011;4768;42.664;23.240;2022-07-29T06:30:56;13.25;;;5.78;;
9459;SDS011;4768;42.664;23.240;2022-07-29T06:33:23;9.77;;;5.43;;
9459;SDS011;4768;42.664;23.240;2022-07-29T06:35:50;7.25;;;5.90;;
9459;SDS011;4768;42.664;23.240;2022-07-29T06:38:17;7.70;;;6.63;;
9459;SDS011;4768;42.664;23.240;2022-07-29T06:40:43;9.30;;;6.00;;
9459;SDS011;4768;42.664;23.240;2022-07-29T06:43:27;9.77;;;5.60;;
9459;SDS011;4768;42.664;23.240;2022-07-29T06:45:58;12.25;;;5.72;;
9459;SDS011;4768;42.664;23.240;2022-07-29T06:48:27;9.73;;;8.73;;
9459;SDS011;4768;42.664;23.240;2022-07-29T06:50:54;16.27;;;10.80;;
9459;SDS011;4768;42.664;23.240;2022-07-29T06:53:21;7.40;;;5.63;;
9459;SDS011;4768;42.664;23.240;2022-07-29T06:55:48;10.57;;;8.25;;
9459;SDS011;4768;42.664;23.240;2022-07-29T06:58:15;9.18;;;6.18;;
9459;SDS011;4768;42.664;23.240;2022-07-29T07:00:44;8.05;;;5.72;;
9459;SDS011;4768;42.664;23.240;2022-07-29T07:03:12;7.13;;;6.43;;
9459;SDS011;4768;42.664;23.240;2022-07-29T07:05:39;6.63;;;5.05;;
9459;SDS011;4768;42.664;23.240;2022-07-29T07:08:06;6.05;;;5.20;;
9459;SDS011;4768;42.664;23.240;2022-07-29T07:10:33;6.80;;;5.53;;
9459;SDS011;4768;42.664;23.240;2022-07-29T07:13:00;9.90;;;5.15;;
9459;SDS011;4768;42.664;23.240;2022-07-29T07:15:27;5.90;;;4.70;;
9459;SDS011;4768;42.664;23.240;2022-07-29T07:17:54;6.60;;;4.95;;
9459;SDS011;4768;42.664;23.240;2022-07-29T07:20:23;6.13;;;5.10;;
9459;SDS011;4768;42.664;23.240;2022-07-29T07:22:50;6.40;;;5.15;;
9459;SDS011;4768;42.664;23.240;2022-07-29T07:25:17;6.20;;;5.22;;
9459;SDS011;4768;42.664;23.240;2022-07-29T07:27:44;10.15;;;5.90;;
9459;SDS011;4768;42.664;23.240;2022-07-29T07:30:11;6.07;;;5.47;;
9459;SDS011;4768;42.664;23.240;2022-07-29T07:32:38;8.10;;;5.25;;
9459;SDS011;4768;42.664;23.240;2022-07-29T07:35:06;6.53;;;5.43;;
9459;SDS011;4768;42.664;23.240;2022-07-29T07:37:35;6.28;;;5.05;;
9459;SDS011;4768;42.664;23.240;2022-07-29T07:40:03;9.35;;;5.30;;
9459;SDS011;4768;42.664;23.240;2022-07-29T07:42:30;5.80;;;5.18;;
9459;SDS011;4768;42.664;23.240;2022-07-29T07:44:57;67.30;;;12.90;;
9459;SDS011;4768;42.664;23.240;2022-07-29T07:47:24;6.88;;;5.80;;
9459;SDS011;4768;42.664;23.240;2022-07-29T07:49:51;13.07;;;5.85;;
9459;SDS011;4768;42.664;23.240;2022-07-29T07:52:19;8.57;;;5.57;;
9459;SDS011;4768;42.664;23.240;2022-07-29T07:54:48;6.40;;;5.40;;
9459;SDS011;4768;42.664;23.240;2022-07-29T07:57:15;6.10;;;5.07;;
9459;SDS011;4768;42.664;23.240;2022-07-29T07:59:42;5.70;;;5.07;;
9459;SDS011;4768;42.664;23.240;2022-07-29T08:02:09;7.88;;;5.35;;
9459;SDS011;4768;42.664;23.240;2022-07-29T08:04:36;7.70;;;5.07;;
9459;SDS011;4768;42.664;23.240;2022-07-29T08:07:05;5.60;;;4.38;;
9459;SDS011;4768;42.664;23.240;2022-07-29T08:09:32;8.48;;;5.03;;
9459;SDS011;4768;42.664;23.240;2022-07-29T08:12:01;8.05;;;5.00;;
9459;SDS011;4768;42.664;23.240;2022-07-29T08:14:28;12.07;;;7.25;;
9459;SDS011;4768;42.664;23.240;2022-07-29T08:16:55;4.93;;;4.53;;
9459;SDS011;4768;42.664;23.240;2022-07-29T08:19:22;6.07;;;4.53;;
9459;SDS011;4768;42.664;23.240;2022-07-29T08:21:49;6.10;;;4.25;;
9459;SDS011;4768;42.664;23.240;2022-07-29T08:24:17;4.80;;;4.20;;
9459;SDS011;4768;42.664;23.240;2022-07-29T08:27:03;4.32;;;3.85;;
9459;SDS011;4768;42.664;23.240;2022-07-29T08:29:29;8.07;;;4.18;;
9459;SDS011;4768;42.664;23.240;2022-07-29T08:31:56;5.45;;;3.95;;
9459;SDS011;4768;42.664;23.240;2022-07-29T08:34:23;3.95;;;3.63;;
9459;SDS011;4768;42.664;23.240;2022-07-29T08:36:50;5.85;;;3.97;;
9459;SDS011;4768;42.664;23.240;2022-07-29T08:39:17;4.55;;;3.95;;
9459;SDS011;4768;42.664;23.240;2022-07-29T08:41:43;5.93;;;3.88;;
9459;SDS011;4768;42.664;23.240;2022-07-29T08:44:12;5.13;;;3.80;;
9459;SDS011;4768;42.664;23.240;2022-07-29T08:46:39;4.55;;;3.92;;
9459;SDS011;4768;42.664;23.240;2022-07-29T08:49:05;4.03;;;3.63;;
9459;SDS011;4768;42.664;23.240;2022-07-29T08:51:33;7.43;;;4.15;;
9459;SDS011;4768;42.664;23.240;2022-07-29T08:54:01;7.75;;;5.03;;
9459;SDS011;4768;42.664;23.240;2022-07-29T08:56:29;4.63;;;3.42;;
9459;SDS011;4768;42.664;23.240;2022-07-29T08:58:56;4.25;;;3.85;;
9459;SDS011;4768;42.664;23.240;2022-07-29T09:01:27;4.90;;;3.67;;
9459;SDS011;4768;42.664;23.240;2022-07-29T09:03:55;3.97;;;3.50;;
9459;SDS011;4768;42.664;23.240;2022-07-29T09:06:26;4.35;;;3.95;;
9459;SDS011;4768;42.664;23.240;2022-07-29T09:08:58;4.07;;;3.72;;
9459;SDS011;4768;42.664;23.240;2022-07-29T09:11:26;4.82;;;4.10;;
9459;SDS011;4768;42.664;23.240;2022-07-29T09:13:53;5.70;;;3.35;;
9459;SDS011;4768;42.664;23.240;2022-07-29T09:16:20;4.22;;;3.72;;
9459;SDS011;4768;42.664;23.240;2022-07-29T09:18:48;5.63;;;3.70;;
9459;SDS011;4768;42.664;23.240;2022-07-29T09:21:15;4.22;;;3.33;;
9459;SDS011;4768;42.664;23.240;2022-07-29T09:24:01;4.25;;;3.60;;
9459;SDS011;4768;42.664;23.240;2022-07-29T09:26:31;3.65;;;3.35;;
9459;SDS011;4768;42.664;23.240;2022-07-29T09:28:59;5.20;;;3.80;;
9459;SDS011;4768;42.664;23.240;2022-07-29T09:31:33;4.60;;;3.53;;
9459;SDS011;4768;42.664;23.240;2022-07-29T09:34:03;6.13;;;3.58;;
9459;SDS011;4768;42.664;23.240;2022-07-29T09:36:30;10.07;;;3.95;;
9459;SDS011;4768;42.664;23.240;2022-07-29T09:38:57;4.30;;;3.90;;
9459;SDS011;4768;42.664;23.240;2022-07-29T09:41:25;4.20;;;3.80;;
9459;SDS011;4768;42.664;23.240;2022-07-29T09:43:55;4.22;;;3.65;;
9459;SDS011;4768;42.664;23.240;2022-07-29T09:46:23;4.38;;;3.45;;
9459;SDS011;4768;42.664;23.240;2022-07-29T09:49:06;5.82;;;3.83;;
9459;SDS011;4768;42.664;23.240;2022-07-29T09:51:34;4.15;;;3.75;;
9459;SDS011;4768;42.664;23.240;2022-07-29T09:54:01;4.55;;;3.75;;
9459;SDS011;4768;42.664;23.240;2022-07-29T09:56:39;4.95;;;3.47;;
9459;SDS011;4768;42.664;23.240;2022-07-29T09:59:06;4.35;;;3.25;;
9459;SDS011;4768;42.664;23.240;2022-07-29T10:01:34;4.35;;;3.63;;
9459;SDS011;4768;42.664;23.240;2022-07-29T10:04:01;4.13;;;3.65;;
9459;SDS011;4768;42.664;23.240;2022-07-29T10:06:30;7.30;;;4.05;;
9459;SDS011;4768;42.664;23.240;2022-07-29T10:09:06;4.38;;;3.88;;
9459;SDS011;4768;42.664;23.240;2022-07-29T10:11:34;6.32;;;3.90;;
9459;SDS011;4768;42.664;23.240;2022-07-29T10:14:01;4.55;;;4.15;;
9459;SDS011;4768;42.664;23.240;2022-07-29T10:16:29;7.97;;;3.95;;
9459;SDS011;4768;42.664;23.240;2022-07-29T10:18:58;4.68;;;4.22;;
9459;SDS011;4768;42.664;23.240;2022-07-29T10:21:26;5.45;;;4.28;;
9459;SDS011;4768;42.664;23.240;2022-07-29T10:23:54;5.20;;;4.28;;
9459;SDS011;4768;42.664;23.240;2022-07-29T10:26:23;4.45;;;4.05;;
9459;SDS011;4768;42.664;23.240;2022-07-29T10:28:50;4.22;;;3.80;;
9459;SDS011;4768;42.664;23.240;2022-07-29T10:31:19;4.55;;;3.80;;
9459;SDS011;4768;42.664;23.240;2022-07-29T10:33:54;5.63;;;4.18;;
9459;SDS011;4768;42.664;23.240;2022-07-29T10:36:32;5.85;;;4.28;;
9459;SDS011;4768;42.664;23.240;2022-07-29T10:39:15;4.90;;;3.90;;
9459;SDS011;4768;42.664;23.240;2022-07-29T10:41:56;4.35;;;3.95;;
9459;SDS011;4768;42.664;23.240;2022-07-29T10:44:32;4.55;;;4.15;;
9459;SDS011;4768;42.664;23.240;2022-07-29T10:46:59;7.32;;;4.22;;
9459;SDS011;4768;42.664;23.240;2022-07-29T10:49:26;5.13;;;4.68;;
9459;SDS011;4768;42.664;23.240;2022-07-29T10:52:02;7.45;;;4.35;;
9459;SDS011;4768;42.664;23.240;2022-07-29T10:54:45;5.40;;;4.20;;
9459;SDS011;4768;42.664;23.240;2022-07-29T10:57:16;5.85;;;4.47;;
9459;SDS011;4768;42.664;23.240;2022-07-29T10:59:46;4.75;;;4.28;;
9459;SDS011;4768;42.664;23.240;2022-07-29T11:05:10;4.47;;;4.07;;
9459;SDS011;4768;42.664;23.240;2022-07-29T11:07:39;4.82;;;4.43;;
9459;SDS011;4768;42.664;23.240;2022-07-29T11:10:27;4.95;;;4.55;;
9459;SDS011;4768;42.664;23.240;2022-07-29T11:12:54;5.40;;;4.20;;
9459;SDS011;4768;42.664;23.240;2022-07-29T11:15:21;4.70;;;4.20;;
9459;SDS011;4768;42.664;23.240;2022-07-29T11:18:04;4.55;;;4.15;;
9459;SDS011;4768;42.664;23.240;2022-07-29T11:20:33;5.25;;;4.75;;
9459;SDS011;4768;42.664;23.240;2022-07-29T11:23:01;6.85;;;4.50;;
9459;SDS011;4768;42.664;23.240;2022-07-29T11:25:44;4.45;;;4.05;;
9459;SDS011;4768;42.664;23.240;2022-07-29T11:28:13;6.97;;;4.57;;
9459;SDS011;4768;42.664;23.240;2022-07-29T11:30:48;4.60;;;4.20;;
9459;SDS011;4768;42.664;23.240;2022-07-29T11:36:08;4.32;;;3.97;;
9459;SDS011;4768;42.664;23.240;2022-07-29T11:38:36;4.78;;;4.13;;
9459;SDS011;4768;42.664;23.240;2022-07-29T11:41:20;5.45;;;4.38;;
9459;SDS011;4768;42.664;23.240;2022-07-29T11:43:51;4.88;;;4.47;;
9459;SDS011;4768;42.664;23.240;2022-07-29T11:49:18;5.28;;;4.78;;
9459;SDS011;4768;42.664;23.240;2022-07-29T11:51:49;6.53;;;4.20;;
9459;SDS011;4768;42.664;23.240;2022-07-29T11:54:21;5.22;;;3.75;;
9459;SDS011;4768;42.664;23.240;2022-07-29T11:56:52;4.60;;;4.20;;
9459;SDS011;4768;42.664;23.240;2022-07-29T11:59:19;4.70;;;4.15;;
9459;SDS011;4768;42.664;23.240;2022-07-29T12:01:54;4.40;;;4.00;;
9459;SDS011;4768;42.664;23.240;2022-07-29T12:04:20;8.90;;;4.30;;
9459;SDS011;4768;42.664;23.240;2022-07-29T12:06:49;5.90;;;4.32;;
9459;SDS011;4768;42.664;23.240;2022-07-29T12:09:16;6.40;;;4.32;;
9459;SDS011;4768;42.664;23.240;2022-07-29T12:11:43;6.20;;;3.80;;
9459;SDS011;4768;42.664;23.240;2022-07-29T12:14:27;5.35;;;4.45;;
9459;SDS011;4768;42.664;23.240;2022-07-29T12:16:55;6.22;;;4.00;;
9459;SDS011;4768;42.664;23.240;2022-07-29T12:19:21;4.85;;;4.40;;
9459;SDS011;4768;42.664;23.240;2022-07-29T12:21:49;4.90;;;4.43;;
9459;SDS011;4768;42.664;23.240;2022-07-29T12:24:16;4.60;;;4.20;;
9459;SDS011;4768;42.664;23.240;2022-07-29T12:26:51;9.00;;;4.20;;
9459;SDS011;4768;42.664;23.240;2022-07-29T12:29:19;8.95;;;4.32;;
9459;SDS011;4768;42.664;23.240;2022-07-29T12:31:50;5.90;;;4.53;;
9459;SDS011;4768;42.664;23.240;2022-07-29T12:34:19;5.43;;;4.25;;
9459;SDS011;4768;42.664;23.240;2022-07-29T12:36:48;5.97;;;4.10;;
9459;SDS011;4768;42.664;23.240;2022-07-29T12:39:16;4.50;;;4.10;;
9459;SDS011;4768;42.664;23.240;2022-07-29T12:41:43;5.00;;;4.38;;
9459;SDS011;4768;42.664;23.240;2022-07-29T12:44:10;5.45;;;4.95;;
9459;SDS011;4768;42.664;23.240;2022-07-29T12:46:37;4.88;;;4.47;;
9459;SDS011;4768;42.664;23.240;2022-07-29T12:49:05;6.40;;;4.30;;
9459;SDS011;4768;42.664;23.240;2022-07-29T12:51:33;4.45;;;4.05;;
9459;SDS011;4768;42.664;23.240;2022-07-29T12:54:02;9.90;;;4.50;;
9459;SDS011;4768;42.664;23.240;2022-07-29T12:56:31;6.03;;;4.55;;
9459;SDS011;4768;42.664;23.240;2022-07-29T12:58:58;3.97;;;3.67;;
9459;SDS011;4768;42.664;23.240;2022-07-29T13:01:24;7.40;;;4.18;;
9459;SDS011;4768;42.664;23.240;2022-07-29T13:03:53;3.97;;;3.67;;
9459;SDS011;4768;42.664;23.240;2022-07-29T13:06:30;4.53;;;4.13;;
9459;SDS011;4768;42.664;23.240;2022-07-29T13:09:03;4.47;;;3.90;;
9459;SDS011;4768;42.664;23.240;2022-07-29T13:11:35;4.82;;;4.07;;
9459;SDS011;4768;42.664;23.240;2022-07-29T13:14:03;4.70;;;4.30;;
9459;SDS011;4768;42.664;23.240;2022-07-29T13:16:31;4.75;;;4.40;;
9459;SDS011;4768;42.664;23.240;2022-07-29T13:19:05;8.02;;;4.40;;
9459;SDS011;4768;42.664;23.240;2022-07-29T13:21:34;5.18;;;4.63;;
9459;SDS011;4768;42.664;23.240;2022-07-29T13:24:02;5.38;;;4.28;;
9459;SDS011;4768;42.664;23.240;2022-07-29T13:26:29;5.10;;;4.60;;
9459;SDS011;4768;42.664;23.240;2022-07-29T13:28:55;5.53;;;4.50;;
9459;SDS011;4768;42.664;23.240;2022-07-29T13:31:22;7.40;;;4.72;;
9459;SDS011;4768;42.664;23.240;2022-07-29T13:33:50;6.13;;;4.28;;
9459;SDS011;4768;42.664;23.240;2022-07-29T13:36:16;4.82;;;4.35;;
9459;SDS011;4768;42.664;23.240;2022-07-29T13:38:45;5.45;;;4.43;;
9459;SDS011;4768;42.664;23.240;2022-07-29T13:41:11;4.75;;;4.35;;
9459;SDS011;4768;42.664;23.240;2022-07-29T13:43:38;11.35;;;4.82;;
9459;SDS011;4768;42.664;23.240;2022-07-29T13:46:05;6.18;;;4.38;;
9459;SDS011;4768;42.664;23.240;2022-07-29T13:48:31;6.35;;;4.50;;
9459;SDS011;4768;42.664;23.240;2022-07-29T13:50:58;4.75;;;4.35;;
9459;SDS011;4768;42.664;23.240;2022-07-29T13:53:25;6.18;;;4.20;;
9459;SDS011;4768;42.664;23.240;2022-07-29T13:55:54;4.93;;;4.30;;
9459;SDS011;4768;42.664;23.240;2022-07-29T13:58:21;4.65;;;4.25;;
9459;SDS011;4768;42.664;23.240;2022-07-29T14:00:48;4.88;;;4.30;;
9459;SDS011;4768;42.664;23.240;2022-07-29T14:03:14;4.57;;;4.20;;
9459;SDS011;4768;42.664;23.240;2022-07-29T14:05:41;5.32;;;4.47;;
9459;SDS011;4768;42.664;23.240;2022-07-29T14:08:08;4.70;;;4.30;;
9459;SDS011;4768;42.664;23.240;2022-07-29T14:10:34;5.68;;;4.72;;
9459;SDS011;4768;42.664;23.240;2022-07-29T14:13:03;6.70;;;4.72;;
9459;SDS011;4768;42.664;23.240;2022-07-29T14:15:29;5.10;;;4.43;;
9459;SDS011;4768;42.664;23.240;2022-07-29T14:17:56;4.57;;;4.15;;
9459;SDS011;4768;42.664;23.240;2022-07-29T14:20:23;4.85;;;4.38;;
9459;SDS011;4768;42.664;23.240;2022-07-29T14:22:49;6.00;;;4.55;;
9459;SDS011;4768;42.664;23.240;2022-07-29T14:25:16;7.93;;;4.07;;
9459;SDS011;4768;42.664;23.240;2022-07-29T14:27:43;8.45;;;4.40;;
9459;SDS011;4768;42.664;23.240;2022-07-29T14:30:11;7.13;;;4.43;;
9459;SDS011;4768;42.664;23.240;2022-07-29T14:32:38;5.65;;;4.72;;
9459;SDS011;4768;42.664;23.240;2022-07-29T14:35:06;4.57;;;4.18;;
9459;SDS011;4768;42.664;23.240;2022-07-29T14:37:33;5.03;;;4.63;;
9459;SDS011;4768;42.664;23.240;2022-07-29T14:40:00;6.43;;;4.28;;
9459;SDS011;4768;42.664;23.240;2022-07-29T14:42:28;4.55;;;4.22;;
9459;SDS011;4768;42.664;23.240;2022-07-29T14:44:55;5.35;;;4.85;;
9459;SDS011;4768;42.664;23.240;2022-07-29T14:47:23;6.07;;;4.10;;
9459;SDS011;4768;42.664;23.240;2022-07-29T14:49:50;5.00;;;4.60;;
9459;SDS011;4768;42.664;23.240;2022-07-29T14:52:17;4.43;;;4.10;;
9459;SDS011;4768;42.664;23.240;2022-07-29T14:54:43;5.57;;;4.88;;
9459;SDS011;4768;42.664;23.240;2022-07-29T14:57:10;5.20;;;4.70;;
9459;SDS011;4768;42.664;23.240;2022-07-29T14:59:37;5.93;;;4.32;;
9459;SDS011;4768;42.664;23.240;2022-07-29T15:02:04;7.65;;;4.82;;
9459;SDS011;4768;42.664;23.240;2022-07-29T15:04:32;5.18;;;4.20;;
9459;SDS011;4768;42.664;23.240;2022-07-29T15:06:59;4.90;;;4.50;;
9459;SDS011;4768;42.664;23.240;2022-07-29T15:09:26;5.20;;;4.70;;
9459;SDS011;4768;42.664;23.240;2022-07-29T15:11:53;5.63;;;4.80;;
9459;SDS011;4768;42.664;23.240;2022-07-29T15:14:20;5.40;;;4.28;;
9459;SDS011;4768;42.664;23.240;2022-07-29T15:16:46;5.30;;;4.72;;